Time;durP1;ratioP1;P1;durP2;ratioP2;P2;SDS_P1;SDS_P2;PMS_P1;PMS_P2;Temp;Humidity;BMP_temperature;BMP_pressure;BME280_temperature;BME280_humidity;BME280_pressure;Samples;Min_cycle;Max_cycle;Signal;HPM_P1;HPM_P2
2021/05/06 00:33:47;;;;;;;22.10;4.28;;;5.00;96.40;;;;;;5070404;28;20028;-71
2021/05/06 00:36:12;;;;;;;13.73;2.65;;;5.00;96.30;;;;;;5070049;28;20029;-71
2021/05/06 00:38:51;;;;;;;17.75;2.47;;;5.00;95.80;;;;;;5068580;28;20025;-71
2021/05/06 00:57:57;;;;;;;8.57;2.38;;;4.90;95.90;;;;;;5070124;28;20350;-72
2021/05/06 01:00:42;;;;;;;14.15;2.67;;;4.90;96.00;;;;;;5068319;28;20095;-71
2021/05/06 01:05:56;;;;;;;14.15;2.65;;;4.90;95.50;;;;;;5064990;28;20387;-71
2021/05/06 01:08:25;;;;;;;16.08;2.42;;;4.80;95.20;;;;;;5066657;28;20033;-71
2021/05/06 01:13:27;;;;;;;15.55;2.70;;;4.80;96.00;;;;;;5066855;28;20441;-71
2021/05/06 01:15:53;;;;;;;19.40;3.38;;;4.90;95.80;;;;;;5068181;28;20040;-71
2021/05/06 01:18:19;;;;;;;14.85;2.90;;;4.80;95.30;;;;;;5067791;28;20033;-71
2021/05/06 01:20:49;;;;;;;12.57;2.55;;;4.80;95.70;;;;;;5066983;28;20115;-71
2021/05/06 01:23:19;;;;;;;20.90;3.50;;;4.80;95.40;;;;;;5067909;28;20057;-71
2021/05/06 01:26:07;;;;;;;17.58;3.20;;;4.70;94.70;;;;;;5068763;28;20060;-71
2021/05/06 01:28:38;;;;;;;16.63;2.97;;;4.70;95.10;;;;;;5069091;28;20028;-71
2021/05/06 01:31:09;;;;;;;15.95;2.97;;;4.70;95.10;;;;;;5066129;28;20394;-71
2021/05/06 01:33:41;;;;;;;12.00;2.60;;;4.70;95.20;;;;;;5070649;28;20039;-71
2021/05/06 01:36:26;;;;;;;19.27;3.13;;;4.70;95.10;;;;;;5066722;28;20497;-72
2021/05/06 01:39:08;;;;;;;13.05;2.47;;;4.70;95.40;;;;;;5066330;28;20032;-71
2021/05/06 01:41:49;;;;;;;17.23;2.38;;;4.70;95.40;;;;;;5066926;28;20568;-71
2021/05/06 01:50:42;;;;;;;9.93;2.55;;;4.70;95.10;;;;;;4986411;28;20049;-71
2021/05/06 01:58:28;;;;;;;11.20;2.40;;;4.60;94.60;;;;;;5068021;28;20032;-71
2021/05/06 02:01:06;;;;;;;16.08;2.25;;;4.60;94.60;;;;;;5069233;28;20037;-71
2021/05/06 02:03:35;;;;;;;15.70;2.60;;;4.60;94.70;;;;;;5067997;28;20063;-71
2021/05/06 02:06:02;;;;;;;14.80;2.63;;;4.60;94.90;;;;;;5068622;28;20035;-71
2021/05/06 02:08:29;;;;;;;11.07;2.03;;;4.60;93.90;;;;;;5065709;28;20032;-71
2021/05/06 02:10:58;;;;;;;13.98;2.83;;;4.50;94.30;;;;;;5067432;28;20402;-71
2021/05/06 02:13:24;;;;;;;10.23;2.05;;;4.50;94.20;;;;;;5066378;28;20093;-71
2021/05/06 02:15:55;;;;;;;10.73;3.20;;;4.60;93.80;;;;;;5067008;28;20514;-71
2021/05/06 02:18:21;;;;;;;11.20;2.05;;;4.60;94.30;;;;;;5067041;28;20119;-72
2021/05/06 02:20:48;;;;;;;13.25;2.72;;;4.60;94.50;;;;;;5069714;28;20491;-72
2021/05/06 02:23:14;;;;;;;22.48;3.13;;;4.60;94.70;;;;;;5080873;28;20508;-71
2021/05/06 02:25:39;;;;;;;12.63;2.15;;;4.60;94.40;;;;;;5068264;28;20092;-72
2021/05/06 02:28:05;;;;;;;14.10;2.35;;;4.50;94.10;;;;;;5070136;28;20123;-72
2021/05/06 02:30:31;;;;;;;12.57;2.10;;;4.50;94.30;;;;;;5071658;28;20286;-71
2021/05/06 02:32:56;;;;;;;14.82;3.30;;;4.50;94.40;;;;;;5071291;28;20051;-72
2021/05/06 02:35:22;;;;;;;12.07;2.38;;;4.50;94.40;;;;;;5072004;28;20075;-71
2021/05/06 02:37:48;;;;;;;15.00;2.25;;;4.50;94.70;;;;;;5071492;28;20512;-72
2021/05/06 02:40:14;;;;;;;11.15;2.60;;;4.50;94.60;;;;;;5070609;28;20028;-71
2021/05/06 02:42:40;;;;;;;8.63;2.20;;;4.50;94.20;;;;;;5069323;28;20090;-72
2021/05/06 02:45:07;;;;;;;17.05;2.70;;;4.50;94.50;;;;;;5071968;28;20067;-72
2021/05/06 02:47:33;;;;;;;14.15;2.25;;;4.60;94.40;;;;;;5071533;28;20032;-72
2021/05/06 02:49:59;;;;;;;13.57;2.03;;;4.60;94.50;;;;;;5071976;28;20032;-72
2021/05/06 02:52:34;;;;;;;16.73;3.90;;;4.50;94.00;;;;;;5069895;28;20060;-71
2021/05/06 03:03:00;;;;;;;13.68;2.38;;;4.60;94.30;;;;;;5071153;28;20059;-72
2021/05/06 03:05:30;;;;;;;12.73;2.35;;;4.60;94.40;;;;;;5071919;28;20446;-72
2021/05/06 03:10:39;;;;;;;11.02;2.60;;;4.60;94.30;;;;;;5070309;28;20405;-71
2021/05/06 03:13:24;;;;;;;11.05;2.47;;;4.50;93.50;;;;;;5071094;28;20036;-71
2021/05/06 03:24:02;;;;;;;10.52;2.15;;;4.50;93.20;;;;;;5072308;28;20021;-71
2021/05/06 03:26:31;;;;;;;10.95;2.95;;;4.50;93.70;;;;;;5070999;28;20028;-72
2021/05/06 03:29:01;;;;;;;14.10;2.55;;;4.50;93.90;;;;;;5079259;28;20035;-72
2021/05/06 03:31:52;;;;;;;9.45;2.15;;;4.50;94.10;;;;;;5068478;28;20477;-71
2021/05/06 03:42:38;;;;;;;10.45;2.42;;;4.50;93.80;;;;;;5069182;28;20111;-71
2021/05/06 03:45:28;;;;;;;7.53;2.30;;;4.50;93.90;;;;;;5070279;28;20032;-71
2021/05/06 04:12:41;;;;;;;15.93;3.53;;;4.40;92.70;;;;;;5069030;28;20016;-71
2021/05/06 04:15:25;;;;;;;9.70;2.22;;;4.40;93.50;;;;;;5069499;28;20482;-71
2021/05/06 04:18:03;;;;;;;7.13;1.90;;;4.40;93.80;;;;;;5069041;28;20044;-71
2021/05/06 04:25:51;;;;;;;13.98;2.20;;;4.40;93.30;;;;;;5070869;28;20021;-71
2021/05/06 04:38:53;;;;;;;8.10;2.30;;;4.50;94.10;;;;;;5074537;28;20024;-72
2021/05/06 04:44:34;;;;;;;13.20;2.25;;;4.50;93.70;;;;;;5070104;28;20566;-71
2021/05/06 04:50:16;;;;;;;18.13;2.78;;;4.50;93.10;;;;;;5069920;28;20085;-71
2021/05/06 04:55:09;;;;;;;10.90;2.70;;;4.60;93.20;;;;;;5069025;28;20126;-71
2021/05/06 04:57:56;;;;;;;4.53;1.75;;;4.60;93.50;;;;;;5070257;28;20398;-71
2021/05/06 05:05:39;;;;;;;7.07;2.20;;;4.80;93.90;;;;;;5068792;28;20024;-71
2021/05/06 05:08:09;;;;;;;9.32;2.05;;;4.80;93.20;;;;;;5069669;28;20404;-72
2021/05/06 05:11:03;;;;;;;13.38;2.53;;;4.90;93.10;;;;;;5069837;28;20036;-71
2021/05/06 05:13:48;;;;;;;9.98;2.05;;;4.90;93.20;;;;;;5066591;28;20032;-71
2021/05/06 05:24:45;;;;;;;8.98;2.60;;;4.90;93.30;;;;;;5067761;28;20510;-71
2021/05/06 05:27:08;;;;;;;8.45;2.10;;;4.90;92.90;;;;;;5067968;28;20624;-70
2021/05/06 05:29:34;;;;;;;11.32;2.35;;;5.00;93.10;;;;;;5068995;28;20028;-70
2021/05/06 05:32:01;;;;;;;8.40;2.53;;;5.00;92.60;;;;;;5067672;28;20061;-70
2021/05/06 05:34:36;;;;;;;10.73;2.45;;;5.00;93.20;;;;;;5066173;28;20043;-71
2021/05/06 05:37:02;;;;;;;13.07;2.58;;;5.00;92.40;;;;;;5063078;28;20057;-69
2021/05/06 05:42:08;;;;;;;11.02;2.15;;;5.10;92.70;;;;;;5068743;28;20035;-70
2021/05/06 05:55:14;;;;;;;8.85;2.00;;;5.30;92.50;;;;;;5065566;28;20340;-69
2021/05/06 05:57:40;;;;;;;11.93;2.47;;;5.30;92.60;;;;;;5058677;28;20028;-70
2021/05/06 06:00:06;;;;;;;11.50;2.45;;;5.40;92.50;;;;;;5063524;28;20029;-70
2021/05/06 06:02:35;;;;;;;6.18;1.88;;;5.40;92.70;;;;;;5067240;28;20051;-72
2021/05/06 06:05:02;;;;;;;9.65;2.28;;;5.50;92.60;;;;;;5064794;28;20029;-70
2021/05/06 06:07:31;;;;;;;10.13;2.20;;;5.50;92.30;;;;;;5067779;28;20108;-71
2021/05/06 06:09:57;;;;;;;14.70;2.47;;;5.50;92.10;;;;;;5068876;28;20432;-70
2021/05/06 06:12:22;;;;;;;10.52;2.35;;;5.50;91.80;;;;;;5044752;28;20029;-70
2021/05/06 06:14:59;;;;;;;8.27;2.38;;;5.60;91.80;;;;;;5065724;28;20025;-71
2021/05/06 06:17:25;;;;;;;10.80;2.58;;;5.70;92.20;;;;;;5065383;28;20035;-70
2021/05/06 06:19:51;;;;;;;9.27;2.42;;;5.70;92.30;;;;;;5067130;28;20032;-70
2021/05/06 06:22:20;;;;;;;10.27;2.40;;;5.80;92.40;;;;;;5067262;28;20036;-70
2021/05/06 06:24:47;;;;;;;14.32;2.55;;;5.80;91.80;;;;;;5065895;28;20021;-70
2021/05/06 06:27:14;;;;;;;12.23;2.17;;;5.80;91.90;;;;;;5067385;28;20025;-71
2021/05/06 06:29:40;;;;;;;6.60;1.77;;;5.90;91.90;;;;;;5070477;28;20037;-73
2021/05/06 06:32:10;;;;;;;8.25;1.75;;;5.90;91.30;;;;;;5067927;28;20037;-70
2021/05/06 06:34:38;;;;;;;16.52;2.30;;;5.90;91.60;;;;;;5068173;28;20029;-71
2021/05/06 06:37:04;;;;;;;11.90;2.60;;;6.00;90.60;;;;;;5067190;28;20104;-70
2021/05/06 06:39:30;;;;;;;12.77;3.20;;;6.00;91.60;;;;;;5064698;28;20131;-72
2021/05/06 06:41:56;;;;;;;12.63;2.28;;;6.10;92.10;;;;;;5066828;28;20051;-71
2021/05/06 06:44:27;;;;;;;10.77;2.28;;;6.20;91.50;;;;;;5069070;28;20535;-71
2021/05/06 06:47:04;;;;;;;8.57;2.40;;;6.20;91.60;;;;;;5065616;28;20499;-71
2021/05/06 06:49:35;;;;;;;8.00;2.33;;;6.30;92.20;;;;;;5069862;28;20017;-71
2021/05/06 06:52:08;;;;;;;7.00;2.13;;;6.40;92.20;;;;;;5070093;28;20028;-72
2021/05/06 06:54:34;;;;;;;9.90;2.20;;;6.50;92.10;;;;;;5073543;28;20032;-71
2021/05/06 06:57:00;;;;;;;14.75;3.38;;;6.50;90.50;;;;;;5064732;28;20044;-71
2021/05/06 06:59:27;;;;;;;11.73;3.22;;;6.50;90.80;;;;;;5065128;28;20021;-72
2021/05/06 07:01:53;;;;;;;11.88;2.55;;;6.50;90.80;;;;;;5067313;28;20040;-70
2021/05/06 07:04:19;;;;;;;13.13;2.50;;;6.50;90.30;;;;;;5062825;28;20028;-70
2021/05/06 07:06:44;;;;;;;9.15;2.45;;;6.50;90.40;;;;;;5069260;28;20021;-71
2021/05/06 07:09:11;;;;;;;7.57;2.90;;;6.50;90.90;;;;;;5069680;28;20043;-71
2021/05/06 07:11:38;;;;;;;13.77;3.22;;;6.50;91.40;;;;;;5067881;28;20443;-70
2021/05/06 07:14:05;;;;;;;12.02;2.75;;;6.60;90.50;;;;;;5070471;28;20079;-71
2021/05/06 07:16:31;;;;;;;7.28;2.05;;;6.70;91.10;;;;;;5072564;28;20044;-71
2021/05/06 07:18:57;;;;;;;9.48;2.20;;;6.70;89.80;;;;;;5070266;28;20064;-73
2021/05/06 07:21:23;;;;;;;8.73;2.97;;;6.70;90.30;;;;;;5066788;28;20051;-72
2021/05/06 07:23:53;;;;;;;11.93;3.10;;;6.80;90.70;;;;;;5069643;28;20025;-72
2021/05/06 07:26:18;;;;;;;17.30;2.70;;;6.80;91.10;;;;;;5067717;28;20094;-72
2021/05/06 07:28:44;;;;;;;7.40;1.92;;;6.90;89.40;;;;;;5071107;28;20079;-71
2021/05/06 07:31:12;;;;;;;11.13;2.30;;;6.80;88.60;;;;;;5069706;28;20037;-72
2021/05/06 07:33:39;;;;;;;10.63;2.38;;;6.80;90.10;;;;;;5067256;28;20501;-72
2021/05/06 07:36:05;;;;;;;11.02;2.42;;;6.80;89.00;;;;;;5071588;28;20028;-73
2021/05/06 07:38:32;;;;;;;10.73;1.88;;;6.90;89.20;;;;;;5077195;28;20050;-71
2021/05/06 07:41:00;;;;;;;13.70;2.30;;;7.00;87.50;;;;;;5073743;28;20028;-72
2021/05/06 07:43:27;;;;;;;11.20;2.25;;;7.00;88.70;;;;;;5069247;28;20033;-72
2021/05/06 07:45:53;;;;;;;7.07;1.83;;;7.00;88.20;;;;;;5070896;28;20055;-72
2021/05/06 07:48:19;;;;;;;8.43;1.73;;;7.10;87.50;;;;;;5070364;28;20024;-72
2021/05/06 07:50:45;;;;;;;9.25;2.10;;;7.20;88.10;;;;;;5071808;28;20025;-72
2021/05/06 07:53:23;;;;;;;9.25;2.03;;;7.30;86.80;;;;;;5077789;28;20071;-73
2021/05/06 07:55:49;;;;;;;6.82;1.83;;;7.30;84.60;;;;;;5070709;28;20028;-73
2021/05/06 07:58:15;;;;;;;11.75;2.20;;;7.40;86.70;;;;;;5068446;28;20041;-71
2021/05/06 08:00:42;;;;;;;9.02;1.90;;;7.50;85.20;;;;;;5068727;28;20043;-71
2021/05/06 08:03:08;;;;;;;6.03;1.70;;;7.60;85.70;;;;;;5069002;28;20033;-71
2021/05/06 08:05:36;;;;;;;10.88;2.65;;;7.60;82.10;;;;;;5068453;28;20111;-72
2021/05/06 08:08:03;;;;;;;12.07;2.30;;;7.60;82.10;;;;;;5063877;28;20029;-71
2021/05/06 08:10:30;;;;;;;5.10;1.50;;;7.70;84.30;;;;;;5072468;28;20036;-71
2021/05/06 08:12:57;;;;;;;10.88;2.10;;;7.70;84.30;;;;;;5073132;28;20394;-70
2021/05/06 08:15:24;;;;;;;9.32;2.28;;;7.80;84.90;;;;;;5069713;28;20032;-70
2021/05/06 08:17:50;;;;;;;9.88;2.45;;;7.80;82.10;;;;;;5071292;28;20470;-71
2021/05/06 08:20:17;;;;;;;7.88;2.08;;;7.70;81.00;;;;;;5069363;28;20565;-71
2021/05/06 08:22:44;;;;;;;13.48;1.90;;;7.70;81.10;;;;;;5069609;28;20282;-71
2021/05/06 08:25:12;;;;;;;9.57;1.77;;;7.70;82.00;;;;;;5071006;28;20470;-72
2021/05/06 08:27:41;;;;;;;9.73;1.90;;;7.70;82.20;;;;;;5070148;28;20044;-72
2021/05/06 08:30:09;;;;;;;7.57;2.03;;;7.80;79.50;;;;;;5070210;28;20107;-70
2021/05/06 08:32:35;;;;;;;10.45;1.60;;;7.90;82.30;;;;;;5070965;28;20024;-71
2021/05/06 08:35:02;;;;;;;10.88;2.03;;;7.90;81.80;;;;;;5071951;28;20093;-70
2021/05/06 08:37:28;;;;;;;12.32;1.60;;;7.90;81.40;;;;;;5066810;28;20090;-71
2021/05/06 08:39:54;;;;;;;6.00;1.20;;;7.90;79.80;;;;;;5070973;28;20021;-70
2021/05/06 08:42:20;;;;;;;10.32;1.92;;;7.90;79.90;;;;;;5073343;28;20029;-71
2021/05/06 08:44:46;;;;;;;9.63;1.60;;;7.90;77.70;;;;;;5068794;28;20035;-70
2021/05/06 08:47:17;;;;;;;10.50;2.40;;;8.00;76.70;;;;;;5071008;28;20093;-72
2021/05/06 08:49:44;;;;;;;8.10;1.70;;;8.10;79.80;;;;;;5070847;28;20016;-71
2021/05/06 08:52:32;;;;;;;7.38;1.38;;;8.10;79.60;;;;;;5071679;28;20428;-72
2021/05/06 08:54:58;;;;;;;6.32;1.42;;;8.20;77.50;;;;;;5021185;28;20029;-71
2021/05/06 08:57:26;;;;;;;9.02;1.40;;;8.10;79.50;;;;;;5021965;28;20398;-71
2021/05/06 08:59:52;;;;;;;7.93;1.63;;;8.10;76.90;;;;;;5017470;28;20439;-71
2021/05/06 09:02:19;;;;;;;8.60;1.73;;;8.20;80.50;;;;;;5016314;28;20033;-71
2021/05/06 09:04:45;;;;;;;9.57;1.52;;;8.30;78.80;;;;;;5015075;28;20507;-70
2021/05/06 09:07:11;;;;;;;5.97;1.30;;;8.40;77.90;;;;;;5016351;28;20052;-71
2021/05/06 09:09:43;;;;;;;11.32;1.75;;;8.50;77.90;;;;;;5017343;28;20034;-71
2021/05/06 09:12:09;;;;;;;10.95;1.58;;;8.60;76.70;;;;;;5017447;28;20130;-70
2021/05/06 09:14:36;;;;;;;4.63;1.30;;;8.60;76.90;;;;;;5017963;28;20105;-70
2021/05/06 09:17:03;;;;;;;8.48;1.92;;;8.70;76.20;;;;;;5018010;28;20091;-70
2021/05/06 09:19:29;;;;;;;11.45;1.85;;;8.80;76.00;;;;;;5018655;28;20140;-70
2021/05/06 09:21:56;;;;;;;4.93;1.30;;;8.90;74.50;;;;;;5018920;28;20455;-70
2021/05/06 09:24:29;;;;;;;10.52;1.30;;;8.80;75.40;;;;;;5016484;28;20361;-70
2021/05/06 09:26:57;;;;;;;7.38;1.60;;;8.80;76.30;;;;;;5003053;28;20037;-70
2021/05/06 09:29:37;;;;;;;5.65;1.30;;;8.80;73.00;;;;;;5019439;28;20096;-71
2021/05/06 09:32:19;;;;;;;7.75;1.40;;;8.80;72.30;;;;;;5037919;28;20538;-70
2021/05/06 09:34:46;;;;;;;5.63;1.25;;;8.80;72.60;;;;;;5067319;28;20040;-70
2021/05/06 09:37:23;;;;;;;7.43;1.40;;;8.80;71.40;;;;;;5068605;28;20086;-71
2021/05/06 09:39:57;;;;;;;9.40;1.63;;;8.80;73.10;;;;;;5068353;28;20070;-73
2021/05/06 09:42:39;;;;;;;6.03;1.60;;;8.90;74.20;;;;;;5069966;28;20462;-71
2021/05/06 09:45:07;;;;;;;9.15;1.58;;;8.90;73.70;;;;;;5069297;28;20033;-71
2021/05/06 09:47:33;;;;;;;7.70;2.10;;;9.00;75.20;;;;;;5072584;28;20462;-71
2021/05/06 09:49:59;;;;;;;8.25;1.85;;;9.00;76.10;;;;;;5068335;28;20151;-71
2021/05/06 09:52:24;;;;;;;5.15;1.52;;;8.90;76.70;;;;;;5069260;28;20032;-70
2021/05/06 09:54:54;;;;;;;9.18;1.73;;;8.90;75.20;;;;;;5069311;28;20032;-71
2021/05/06 09:57:31;;;;;;;6.93;1.77;;;8.90;74.50;;;;;;5068779;28;20059;-70
2021/05/06 10:00:16;;;;;;;11.40;2.13;;;8.90;75.90;;;;;;5069102;28;20078;-70
2021/05/06 10:02:43;;;;;;;6.63;1.70;;;8.90;76.10;;;;;;5069914;28;20064;-71
2021/05/06 10:05:10;;;;;;;9.52;1.70;;;8.90;76.30;;;;;;5066749;28;20039;-71
2021/05/06 10:07:36;;;;;;;6.65;1.73;;;8.80;70.90;;;;;;5068647;28;20024;-71
2021/05/06 10:10:09;;;;;;;8.15;1.60;;;8.70;73.70;;;;;;5070341;28;20044;-71
2021/05/06 10:12:36;;;;;;;7.05;1.40;;;8.70;73.40;;;;;;5069007;28;20106;-70
2021/05/06 10:15:05;;;;;;;14.20;2.67;;;8.70;73.90;;;;;;5069211;28;20040;-69
2021/05/06 10:17:31;;;;;;;7.13;1.40;;;8.60;79.80;;;;;;5068720;28;20509;-71
2021/05/06 10:19:58;;;;;;;5.75;1.40;;;8.30;84.20;;;;;;5068223;28;20104;-71
2021/05/06 10:22:26;;;;;;;5.95;1.40;;;8.10;86.50;;;;;;5068874;28;20024;-71
2021/05/06 10:24:52;;;;;;;3.45;1.23;;;7.80;88.20;;;;;;5066201;28;20036;-72
2021/05/06 10:27:20;;;;;;;2.83;0.80;;;7.60;88.30;;;;;;5067034;28;20032;-73
2021/05/06 10:29:47;;;;;;;3.58;1.10;;;7.50;89.60;;;;;;5069002;28;20108;-74
2021/05/06 10:32:15;;;;;;;6.55;1.00;;;7.50;90.80;;;;;;5070005;28;20036;-73
2021/05/06 10:34:43;;;;;;;2.13;0.85;;;7.60;91.20;;;;;;5069339;28;20021;-73
2021/05/06 10:37:10;;;;;;;5.93;1.60;;;7.70;91.00;;;;;;5069680;28;20432;-73
2021/05/06 10:40:23;;;;;;;4.38;1.42;;;7.70;91.00;;;;;;5067201;28;20048;-70
2021/05/06 10:42:50;;;;;;;6.53;1.80;;;7.80;90.40;;;;;;5019497;28;20108;-69
2021/05/06 10:45:36;;;;;;;6.55;1.80;;;7.90;90.00;;;;;;5017359;28;20112;-72
2021/05/06 10:48:02;;;;;;;4.60;1.67;;;8.00;88.20;;;;;;5020896;28;20042;-71
2021/05/06 10:50:39;;;;;;;4.07;1.40;;;8.20;89.10;;;;;;5024171;28;20060;-70
2021/05/06 10:53:07;;;;;;;9.18;1.38;;;8.20;85.70;;;;;;5020974;28;20113;-69
2021/05/06 10:55:46;;;;;;;6.63;1.20;;;8.30;84.90;;;;;;5018364;28;20068;-70
2021/05/06 10:58:27;;;;;;;5.32;1.13;;;8.40;82.00;;;;;;5020195;28;20030;-70
2021/05/06 11:01:14;;;;;;;4.07;1.42;;;8.50;84.40;;;;;;5018771;28;20556;-74
2021/05/06 11:03:41;;;;;;;5.00;1.23;;;8.50;86.70;;;;;;5020686;28;20033;-73
2021/05/06 11:06:34;;;;;;;4.53;1.30;;;8.70;84.80;;;;;;5020703;28;20069;-72
2021/05/06 11:09:02;;;;;;;4.75;1.08;;;9.00;88.80;;;;;;5019434;28;20551;-73
2021/05/06 11:11:28;;;;;;;2.60;1.02;;;9.20;80.80;;;;;;5011212;28;20061;-72
2021/05/06 11:14:06;;;;;;;5.32;1.30;;;9.40;83.30;;;;;;5022577;28;20128;-73
2021/05/06 11:16:33;;;;;;;8.43;1.92;;;9.40;77.00;;;;;;5023451;28;20098;-73
2021/05/06 11:19:00;;;;;;;3.78;1.48;;;9.30;78.40;;;;;;5024374;28;20388;-73
2021/05/06 11:21:40;;;;;;;5.78;1.30;;;9.10;79.00;;;;;;5071664;28;20417;-74
2021/05/06 11:24:25;;;;;;;5.35;1.30;;;9.00;76.40;;;;;;5074036;28;20976;-73
2021/05/06 11:27:09;;;;;;;5.85;1.83;;;8.80;78.80;;;;;;5070315;28;20044;-74
2021/05/06 11:29:38;;;;;;;2.97;1.30;;;8.80;78.20;;;;;;5069994;28;20555;-72
2021/05/06 11:32:33;;;;;;;5.47;1.60;;;9.20;82.80;;;;;;5065124;28;20036;-72
2021/05/06 11:34:59;;;;;;;3.28;1.08;;;10.30;85.80;;;;;;5081343;28;20116;-72
2021/05/06 11:37:27;;;;;;;4.70;1.10;;;11.60;79.60;;;;;;5072050;28;20437;-72
2021/05/06 11:40:21;;;;;;;1.58;1.00;;;12.20;72.90;;;;;;5070136;28;20028;-71
2021/05/06 11:42:47;;;;;;;4.90;1.08;;;12.10;70.00;;;;;;5072255;28;20090;-72
2021/05/06 11:45:23;;;;;;;3.00;1.20;;;12.10;74.80;;;;;;5071474;28;20021;-73
2021/05/06 11:47:50;;;;;;;5.25;1.50;;;12.60;74.00;;;;;;5077221;28;20029;-71
2021/05/06 11:50:21;;;;;;;3.67;1.17;;;13.40;74.70;;;;;;5072152;28;20108;-71
2021/05/06 11:52:47;;;;;;;;;;;14.10;70.20;;;;;;5077311;28;20024;-72
2021/05/06 11:55:29;;;;;;;5.05;1.20;;;14.70;65.10;;;;;;5071643;28;20312;-71
2021/05/06 11:57:55;;;;;;;3.05;0.90;;;15.10;63.90;;;;;;5073101;28;20115;-72
2021/05/06 12:00:24;;;;;;;4.18;1.10;;;15.20;63.30;;;;;;5073884;28;20119;-72
2021/05/06 12:02:58;;;;;;;3.78;1.10;;;15.30;63.40;;;;;;5071182;28;20025;-72
2021/05/06 12:05:24;;;;;;;3.28;1.00;;;15.40;60.00;;;;;;5062831;28;20032;-72
2021/05/06 12:08:03;;;;;;;2.78;1.00;;;15.40;62.60;;;;;;5067891;28;20028;-72
2021/05/06 12:10:29;;;;;;;2.83;0.98;;;15.20;60.60;;;;;;5070940;28;20094;-73
2021/05/06 12:13:02;;;;;;;3.55;1.48;;;14.50;63.40;;;;;;5071493;28;20028;-71
2021/05/06 12:15:28;;;;;;;5.78;1.52;;;13.80;59.20;;;;;;5075996;28;20056;-72
2021/05/06 12:18:14;;;;;;;7.28;1.60;;;12.90;63.20;;;;;;5069080;28;20071;-72
2021/05/06 12:20:49;;;;;;;5.45;1.27;;;12.00;70.60;;;;;;5065146;28;20036;-75
2021/05/06 12:23:15;;;;;;;5.55;1.45;;;11.30;78.60;;;;;;5067161;28;20028;-73
2021/05/06 12:25:41;;;;;;;9.52;1.80;;;10.80;81.20;;;;;;5066024;28;20029;-72
2021/05/06 12:28:07;;;;;;;10.10;3.08;;;10.30;81.00;;;;;;5070300;28;20047;-72
2021/05/06 12:30:33;;;;;;;4.43;1.80;;;10.30;86.60;;;;;;5073508;28;20035;-72
2021/05/06 12:32:59;;;;;;;6.55;1.80;;;10.70;87.50;;;;;;5069060;28;20071;-72
2021/05/06 12:35:24;;;;;;;5.95;1.70;;;11.60;86.20;;;;;;5066351;28;20041;-72
2021/05/06 12:37:53;;;;;;;3.67;1.23;;;12.30;84.20;;;;;;5067439;28;20036;-74
2021/05/06 12:40:19;;;;;;;3.17;1.25;;;13.20;81.30;;;;;;5068914;28;20064;-75
2021/05/06 12:42:45;;;;;;;7.28;1.42;;;14.00;76.70;;;;;;5068681;28;20021;-75
2021/05/06 12:45:13;;;;;;;6.10;1.42;;;14.60;77.50;;;;;;5070744;28;20536;-75
2021/05/06 12:47:49;;;;;;;5.20;1.35;;;15.30;67.90;;;;;;5069429;28;20033;-75
2021/05/06 12:50:18;;;;;;;6.65;1.55;;;15.80;70.80;;;;;;5070901;28;20030;-75
2021/05/06 12:52:45;;;;;;;3.03;1.10;;;16.10;70.20;;;;;;5067798;28;20021;-76
2021/05/06 12:55:31;;;;;;;2.83;1.17;;;16.60;69.70;;;;;;5068303;28;20035;-76
2021/05/06 12:58:06;;;;;;;4.38;0.90;;;17.00;56.10;;;;;;5069111;28;20386;-75
2021/05/06 13:00:34;;;;;;;3.72;1.33;;;17.30;59.50;;;;;;5067117;28;20033;-76
2021/05/06 13:03:10;;;;;;;5.07;1.30;;;17.60;59.50;;;;;;5069692;28;20103;-75
2021/05/06 13:05:39;;;;;;;3.42;1.05;;;17.80;52.00;;;;;;5069494;28;20386;-76
2021/05/06 13:08:05;;;;;;;2.40;0.90;;;17.90;51.90;;;;;;5066705;28;20090;-75
2021/05/06 13:10:39;;;;;;;1.50;0.80;;;18.10;45.00;;;;;;5069686;28;20040;-75
2021/05/06 13:13:07;;;;;;;2.78;0.82;;;18.50;59.10;;;;;;5070077;28;20028;-76
2021/05/06 13:15:46;;;;;;;5.22;1.10;;;18.90;56.00;;;;;;5069605;28;20037;-75
2021/05/06 13:18:13;;;;;;;3.92;1.13;;;19.40;51.40;;;;;;5067249;28;20040;-75
2021/05/06 13:20:39;;;;;;;4.38;1.27;;;19.70;54.00;;;;;;5067324;28;20063;-75
2021/05/06 13:23:06;;;;;;;2.42;0.95;;;20.00;47.50;;;;;;5069125;28;20041;-75
2021/05/06 13:26:05;;;;;;;7.07;1.88;;;19.70;51.20;;;;;;5061984;28;20035;-72
2021/05/06 13:28:34;;;;;;;3.42;1.00;;;18.80;39.50;;;;;;5067387;28;20054;-74
2021/05/06 13:31:30;;;;;;;2.67;0.98;;;17.80;45.80;;;;;;5070154;28;20029;-74
2021/05/06 13:34:24;;;;;;;3.42;1.00;;;16.90;41.30;;;;;;5071044;28;20105;-74
2021/05/06 13:37:03;;;;;;;2.97;1.05;;;16.40;50.40;;;;;;5067780;28;20545;-74
2021/05/06 13:39:35;;;;;;;3.50;1.10;;;16.30;48.70;;;;;;5083972;28;20049;-74
2021/05/06 13:42:01;;;;;;;2.63;1.10;;;16.00;51.20;;;;;;5068926;28;20029;-73
2021/05/06 13:44:31;;;;;;;3.60;1.40;;;15.40;49.70;;;;;;5067901;28;20081;-71
2021/05/06 13:47:02;;;;;;;4.20;1.05;;;14.90;48.30;;;;;;5067009;28;20024;-73
2021/05/06 13:49:32;;;;;;;10.57;1.00;;;14.40;48.50;;;;;;5067676;28;20059;-73
2021/05/06 13:51:59;;;;;;;4.80;1.40;;;13.80;49.90;;;;;;5067648;28;20507;-74
2021/05/06 13:54:27;;;;;;;8.02;1.88;;;13.50;50.20;;;;;;5067962;28;20034;-73
2021/05/06 13:56:56;;;;;;;4.05;1.73;;;13.10;52.10;;;;;;5066243;28;20395;-74
2021/05/06 13:59:22;;;;;;;4.43;1.58;;;12.70;51.60;;;;;;5065058;28;20028;-73
2021/05/06 14:01:56;;;;;;;3.28;1.10;;;12.40;50.90;;;;;;5067073;28;20360;-73
2021/05/06 14:04:23;;;;;;;3.80;1.27;;;12.10;57.00;;;;;;5071996;28;20025;-73
2021/05/06 14:06:49;;;;;;;4.32;1.20;;;11.80;58.00;;;;;;5074492;28;20451;-72
2021/05/06 14:09:19;;;;;;;3.97;1.08;;;11.60;60.90;;;;;;5074185;28;20119;-73
2021/05/06 14:11:46;;;;;;;4.38;1.23;;;11.60;63.60;;;;;;5075637;28;20036;-74
2021/05/06 14:14:13;;;;;;;4.13;0.93;;;11.60;61.70;;;;;;5070738;28;20078;-74
2021/05/06 14:16:40;;;;;;;5.68;1.20;;;11.60;62.80;;;;;;5066181;28;20035;-70
2021/05/06 14:19:08;;;;;;;2.03;0.73;;;11.70;60.40;;;;;;5071255;28;20112;-70
2021/05/06 14:21:38;;;;;;;3.10;0.85;;;12.00;65.80;;;;;;5070016;28;20036;-72
2021/05/06 14:24:05;;;;;;;3.97;1.00;;;12.20;57.80;;;;;;5074100;28;20029;-73
2021/05/06 14:26:31;;;;;;;7.45;1.58;;;12.20;61.50;;;;;;5073866;28;20608;-73
2021/05/06 14:28:57;;;;;;;5.93;1.40;;;12.30;58.70;;;;;;5069808;28;20287;-71
2021/05/06 14:31:23;;;;;;;2.42;1.27;;;12.30;57.50;;;;;;5065547;28;20032;-73
2021/05/06 14:33:49;;;;;;;4.05;1.27;;;12.30;56.20;;;;;;5063353;28;20113;-72
2021/05/06 14:36:15;;;;;;;4.72;1.00;;;12.30;59.40;;;;;;5063810;28;20047;-73
2021/05/06 14:38:42;;;;;;;2.80;1.40;;;12.30;56.40;;;;;;5064342;28;20036;-72
2021/05/06 14:41:08;;;;;;;4.68;1.00;;;12.30;58.70;;;;;;5067053;28;20029;-73
2021/05/06 14:43:34;;;;;;;3.03;1.02;;;12.20;56.90;;;;;;5065128;28;20039;-73
2021/05/06 14:46:00;;;;;;;7.97;1.20;;;12.10;55.10;;;;;;5061598;28;20033;-68
2021/05/06 14:48:26;;;;;;;6.47;1.30;;;12.00;57.30;;;;;;5064758;28;20025;-74
2021/05/06 14:50:52;;;;;;;6.78;1.35;;;11.90;57.90;;;;;;5065462;28;20036;-73
2021/05/06 14:53:18;;;;;;;3.58;0.98;;;11.80;59.50;;;;;;5068021;28;20107;-73
2021/05/06 14:55:44;;;;;;;3.65;1.10;;;11.70;60.90;;;;;;5070120;28;20028;-72
2021/05/06 14:58:10;;;;;;;9.13;1.52;;;11.60;62.20;;;;;;5065812;28;20074;-71
2021/05/06 15:00:36;;;;;;;5.75;1.75;;;11.60;60.20;;;;;;5066718;28;20099;-74
2021/05/06 15:03:02;;;;;;;5.82;1.00;;;11.80;63.60;;;;;;5068266;28;20048;-74
2021/05/06 15:05:29;;;;;;;5.95;1.50;;;12.00;57.20;;;;;;5069272;28;20495;-73
2021/05/06 15:07:56;;;;;;;8.07;1.45;;;12.00;51.70;;;;;;5071791;28;20036;-73
2021/05/06 15:10:22;;;;;;;4.35;1.27;;;11.80;57.10;;;;;;5069028;28;20025;-73
2021/05/06 15:12:48;;;;;;;5.65;1.23;;;11.60;57.80;;;;;;5065773;28;20479;-73
2021/05/06 15:15:15;;;;;;;4.90;0.88;;;11.50;55.60;;;;;;5066783;28;20040;-74
2021/05/06 15:17:42;;;;;;;5.55;1.00;;;11.50;59.50;;;;;;5068752;28;20083;-74
2021/05/06 15:20:09;;;;;;;2.92;1.02;;;11.60;62.10;;;;;;5069183;28;20059;-74
2021/05/06 15:22:35;;;;;;;10.43;1.88;;;11.60;57.70;;;;;;5066006;28;20437;-74
2021/05/06 15:25:02;;;;;;;7.78;1.40;;;11.60;58.40;;;;;;5066062;28;20025;-73
2021/05/06 15:27:28;;;;;;;4.72;1.30;;;11.50;59.30;;;;;;5062097;28;20044;-73
2021/05/06 15:29:53;;;;;;;3.88;1.13;;;11.40;57.40;;;;;;5060986;28;20033;-72
2021/05/06 15:32:19;;;;;;;2.10;1.00;;;11.40;59.40;;;;;;5066330;28;20029;-74
2021/05/06 15:34:47;;;;;;;4.47;1.10;;;11.30;58.70;;;;;;5067009;28;20039;-73
2021/05/06 15:37:12;;;;;;;4.85;1.65;;;11.30;57.10;;;;;;5072055;28;20020;-72
2021/05/06 15:39:39;;;;;;;7.35;2.10;;;11.30;60.40;;;;;;5070322;28;20364;-74
2021/05/06 15:42:05;;;;;;;4.22;0.95;;;11.40;60.00;;;;;;5068571;28;20117;-74
2021/05/06 15:44:31;;;;;;;5.60;1.23;;;11.50;59.50;;;;;;5072096;28;20025;-74
2021/05/06 15:47:04;;;;;;;7.43;1.00;;;11.60;63.50;;;;;;5066646;28;20028;-72
2021/05/06 15:49:37;;;;;;;5.30;1.13;;;11.60;58.60;;;;;;5069437;28;20074;-73
2021/05/06 15:52:04;;;;;;;4.00;1.55;;;11.50;59.70;;;;;;5069502;28;20020;-71
2021/05/06 15:54:30;;;;;;;3.67;1.45;;;11.50;60.40;;;;;;5069519;28;20032;-74